Seacod — DDPW — position and weather

sailwx.info

Track history (hours):
 
Tides and Currents Weather Stations Pressure Air Temp Water Temp Dewpoint Dewpoint Depression Visibility Wind Speed Wind Dir Waves Ship Positions

Seacod

Last reported at 2017-Jul-11 11:33 UTC. Time now 2017-Aug-22 09:19 UTC.
Position N 51°22' W 056°48'.
Warning: this ship's position is 41 days out of date.

Length 188 m; draft 9.1 m.

Type: Ship. MMSI: 218019000.

Date/timePositionNaut miles runAvg speedWind from/ knotsBaromVisibWave heightAir tempDewpointWater temp
2017-Jul-11 11:33N 51°22' W 056°48'116.5
2017-Jul-11 11:30N 51°21' W 056°49'815.8
2017-Jul-11 10:59N 51°17' W 056°60'815.6
2017-Jul-11 10:30N 51°12' W 057°10'815.6
2017-Jul-11 09:59N 51°08' W 057°20'714.9
2017-Jul-11 09:30N 51°03' W 057°29'815.1
2017-Jul-11 09:00N 50°58' W 057°38'714.9
2017-Jul-11 08:30N 50°52' W 057°46'7714.7
2017-Jul-11 03:15N 49°55' W 059°08'  
Track history (hours):
 
Tides and Currents Weather Stations Pressure Air Temp Water Temp Dewpoint Dewpoint Depression Visibility Wind Speed Wind Dir Waves Ship Positions

Seacod

Last reported at 2017-Jul-11 11:33 UTC. Time now 2017-Aug-22 09:19 UTC.
Position N 51°22' W 056°48'.
Warning: this ship's position is 41 days out of date.

Length 188 m; draft 9.1 m.

Type: Ship. MMSI: 218019000.

Date/timePositionNaut miles runAvg speedWind from/ knotsBaromVisibWave heightAir tempDewpointWater temp
2017-Jul-11 11:33N 51°22' W 056°48'116.5
2017-Jul-11 11:30N 51°21' W 056°49'815.8
2017-Jul-11 10:59N 51°17' W 056°60'815.6
2017-Jul-11 10:30N 51°12' W 057°10'815.6
2017-Jul-11 09:59N 51°08' W 057°20'714.9
2017-Jul-11 09:30N 51°03' W 057°29'815.1
2017-Jul-11 09:00N 50°58' W 057°38'714.9
2017-Jul-11 08:30N 50°52' W 057°46'7714.7
2017-Jul-11 03:15N 49°55' W 059°08'  

Dump ship's entire track history